Crescent City, FL (32112)

06:55 EDT le 25 avril 2015 (GMT -0400)
South end of Crescent Lake | | Change Station
CLOSE
Current Station
Stations météorologiques personnelles
Location: Crescent City, FL
Altitude: 16 ft
Stations météo à proximité

Alt. 16 ft 29.39 °N, 81.47 °W | Updated 11 seconds ago

Partiellement nuageux
Partiellement nuageux
65.2 ° F
Paraît 65.2 ° F
N
0.0
Vent Variable Vent de SSE
Gusts 0.0 mph

Aujourd'hui
Haut(e) -- | Bas -- ° F
--% Risque de précip.
Hier
Haut(e) -- | Bas -- ° F
Precip. -- pouce
6:49 AM 7:58 PM
Lune montante, 45% visible
Pression 29.93 pouce
Visibilité 9.0 Miles terrestres
Nuages Ciel dégagé
Point de rosée 64 ° F
Humidité 96%
Précipitations 0.00 pouce
Profondeur de la couche neigeuse Non disponible.
UV 0 sur 12
Pollen 8.40 sur 12
Qualité de l'air Non disponible.
Flu Activity Local Activity
METAR KDAB 250953Z 00000KT 9SM CLR 20/19 A2993 RMK AO2 SLP134 T02000189

More Conditions Fewer Conditions

Pression 29.93 pouce
Visibilité 9.0 Miles terrestres
Nuages Ciel dégagé
Point de rosée 64 ° F
Humidité 96%
Précipitations 0.00 pouce
Profondeur de la couche neigeuse Non disponible.
UV 0 sur 12
Pollen 8.40 sur 12
Qualité de l'air Non disponible.
Flu Activity Local Activity
METAR KDAB 250953Z 00000KT 9SM CLR 20/19 A2993 RMK AO2 SLP134 T02000189

More Conditions Fewer Conditions

10-Day Weather Forecast

Almanac

Astronomie

Apr. 25, 2015 Lever Coucher
Temps réel
Crépuscule civil
Crépuscule nautique
Crépuscule astronomique
Lune
Durée de lumière visible
Longueur du jour
Tomorrow will be .
, % of the Moon is Illuminated

Extrêmes aujourd'hui

State Highs State Lows

Community

WunderPhotos

Upload Photos

1,816,639 Photos téléchargées !

WunderBlogs® & News

Nearby

Qualité de l'air

  Qualité de l'air Indice de la qualité de l'air Polluant
Not available.

Épaisseur de neige

Station Depth Altitude

Activité sismique

Ville Distance Mag. Time & Date
Minimum magnitude displayed is 2.5.

Températures des eaux côtières

Lieu Température

Stations

Stations météo à proximité

Emplacement de la station Température Refroidissement éolien Point de rosée Humidité Vent Precip. Alt. Mise à jour Type